Time;durP1;ratioP1;P1;durP2;ratioP2;P2;SDS_P1;SDS_P2;PMS_P1;PMS_P2;Temp;Humidity;BMP_temperature;BMP_pressure;BME280_temperature;BME280_humidity;BME280_pressure;Samples;Min_cycle;Max_cycle;Signal;HPM_P1;HPM_P2
2022/08/03 00:00:34;;;;;;;43.63;35.93;;;;;;;-144.27;100.00;69759.91;2067081;28;20193;-76
2022/08/03 00:01:40;;;;;;;42.20;34.83;;;;;;;-144.27;100.00;69759.91;2066342;28;20444;-73
2022/08/03 00:02:42;;;;;;;37.93;33.87;;;;;;;-144.27;100.00;69759.91;2066556;28;20264;-77
2022/08/03 00:03:44;;;;;;;41.87;36.40;;;;;;;-144.27;100.00;69759.91;2066324;28;20447;-75
2022/08/03 00:04:46;;;;;;;40.10;35.83;;;;;;;-144.27;100.00;69759.91;2066229;28;20449;-75
2022/08/03 00:05:47;;;;;;;40.27;36.17;;;;;;;-144.27;100.00;69759.91;2050342;28;20450;-75
2022/08/03 00:06:48;;;;;;;40.80;36.60;;;;;;;-144.27;100.00;69759.91;2057922;28;20457;-74
2022/08/03 00:07:50;;;;;;;42.37;36.00;;;;;;;-144.27;100.00;69759.91;2066232;28;20975;-75
2022/08/03 00:08:50;;;;;;;46.90;36.03;;;;;;;-144.27;100.00;69759.91;2066302;28;20306;-76
2022/08/03 00:09:52;;;;;;;45.30;37.67;;;;;;;-144.27;100.00;69759.91;2067063;28;20428;-76
2022/08/03 00:10:55;;;;;;;40.97;36.47;;;;;;;-144.27;100.00;69759.91;2067071;28;20193;-75
2022/08/03 00:11:58;;;;;;;41.83;35.67;;;;;;;-144.27;100.00;69759.91;2057796;28;20453;-76
2022/08/03 00:12:59;;;;;;;50.00;35.83;;;;;;;-144.27;100.00;69759.91;2058359;28;20491;-76
2022/08/03 00:14:00;;;;;;;40.27;35.67;;;;;;;-144.27;100.00;69759.91;2066186;28;20436;-75
2022/08/03 00:15:01;;;;;;;43.10;37.57;;;;;;;-144.27;100.00;69759.91;2050156;28;20219;-76
2022/08/03 00:16:03;;;;;;;41.77;36.50;;;;;;;-144.27;100.00;69759.91;2058268;28;20481;-76
2022/08/03 00:17:03;;;;;;;49.10;36.17;;;;;;;-144.27;100.00;69759.91;2066906;28;20205;-75
2022/08/03 00:18:08;;;;;;;39.50;35.40;;;;;;;-144.27;100.00;69759.91;2066777;28;20443;-75
2022/08/03 00:19:09;;;;;;;41.33;35.07;;;;;;;-144.27;100.00;69759.91;2066187;28;20203;-75
2022/08/03 00:20:11;;;;;;;41.47;36.63;;;;;;;-144.27;100.00;69759.91;2066090;28;20531;-75
2022/08/03 00:21:12;;;;;;;39.93;34.67;;;;;;;-144.27;100.00;69759.91;2057922;28;20225;-74
2022/08/03 00:22:14;;;;;;;37.87;33.87;;;;;;;-144.27;100.00;69759.91;2067065;28;20875;-76
2022/08/03 00:23:15;;;;;;;38.57;33.83;;;;;;;-144.27;100.00;69759.91;2066872;28;20197;-77
2022/08/03 00:24:17;;;;;;;39.73;33.70;;;;;;;-144.27;100.00;69759.91;2066139;28;21045;-75
2022/08/03 00:25:18;;;;;;;39.40;35.07;;;;;;;-144.27;100.00;69759.91;2066056;28;20226;-76
2022/08/03 00:26:20;;;;;;;43.33;36.53;;;;;;;-144.27;100.00;69759.91;2058268;28;20433;-76
2022/08/03 00:27:21;;;;;;;45.50;38.97;;;;;;;-144.27;100.00;69759.91;2066092;28;20456;-75
2022/08/03 00:28:23;;;;;;;45.17;39.33;;;;;;;-144.27;100.00;69759.91;2066201;28;20428;-77
2022/08/03 00:29:23;;;;;;;60.73;44.73;;;;;;;-144.27;100.00;69759.91;2066994;28;20189;-75
2022/08/03 00:30:25;;;;;;;57.10;43.20;;;;;;;-144.27;100.00;69759.91;2066757;28;20985;-76
2022/08/03 00:31:28;;;;;;;62.63;46.50;;;;;;;-144.27;100.00;69759.91;2066857;28;20197;-75
2022/08/03 00:32:29;;;;;;;59.43;44.00;;;;;;;-144.27;100.00;69759.91;2058088;28;20500;-76
2022/08/03 00:33:32;;;;;;;55.57;42.70;;;;;;;-144.27;100.00;69759.91;2058155;28;20433;-76
2022/08/03 00:34:33;;;;;;;49.17;42.13;;;;;;;-144.27;100.00;69759.91;2066950;28;20436;-75
2022/08/03 00:35:34;;;;;;;52.60;43.23;;;;;;;-144.27;100.00;69759.91;2066748;28;20438;-75
2022/08/03 00:36:35;;;;;;;52.17;42.03;;;;;;;-144.27;100.00;69759.91;2066314;28;20248;-76
2022/08/03 00:37:37;;;;;;;50.20;42.53;;;;;;;-144.27;100.00;69759.91;2066838;28;20436;-76
2022/08/03 00:38:37;;;;;;;50.30;41.43;;;;;;;-144.27;100.00;69759.91;2066902;28;20201;-74
2022/08/03 00:39:42;;;;;;;50.93;42.93;;;;;;;-144.27;100.00;69759.91;2066069;28;20444;-74
2022/08/03 00:40:43;;;;;;;53.37;43.53;;;;;;;-144.27;100.00;69759.91;2066156;28;20247;-77
2022/08/03 00:41:44;;;;;;;53.70;43.93;;;;;;;-144.27;100.00;69759.91;2066887;28;20428;-77
2022/08/03 00:42:47;;;;;;;64.53;46.33;;;;;;;-144.27;100.00;69759.91;2066868;28;20428;-77
2022/08/03 00:43:49;;;;;;;60.37;46.83;;;;;;;-144.27;100.00;69759.91;2058009;28;20280;-74
2022/08/03 00:44:49;;;;;;;61.67;47.27;;;;;;;-144.27;100.00;69759.91;2049093;28;20527;-75
2022/08/03 00:45:53;;;;;;;62.57;47.27;;;;;;;-144.27;100.00;69759.91;2058268;28;20931;-76
2022/08/03 00:46:54;;;;;;;62.20;47.33;;;;;;;-144.27;100.00;69759.91;2065579;28;20274;-75
2022/08/03 00:47:56;;;;;;;55.20;46.20;;;;;;;-144.27;100.00;69759.91;2066133;28;20432;-76
2022/08/03 00:48:58;;;;;;;57.70;46.20;;;;;;;-144.27;100.00;69759.91;2065918;28;20892;-75
2022/08/03 00:49:59;;;;;;;62.23;48.20;;;;;;;-144.27;100.00;69759.91;2065907;28;20432;-75
2022/08/03 00:51:00;;;;;;;69.47;49.00;;;;;;;-144.27;100.00;69759.91;2049035;28;20450;-77
2022/08/03 00:52:04;;;;;;;72.83;52.10;;;;;;;-144.27;100.00;69759.91;2049937;28;20440;-77
2022/08/03 00:53:09;;;;;;;64.93;50.40;;;;;;;-144.27;100.00;69759.91;2058761;28;20885;-75
2022/08/03 00:54:11;;;;;;;80.17;58.43;;;;;;;-144.27;100.00;69759.91;2066659;28;20825;-75
2022/08/03 00:55:11;;;;;;;71.03;50.90;;;;;;;-144.27;100.00;69759.91;2066768;28;20918;-76
2022/08/03 00:56:14;;;;;;;64.23;48.23;;;;;;;-144.27;100.00;69759.91;2065757;28;20888;-76
2022/08/03 00:57:14;;;;;;;68.13;52.33;;;;;;;-144.27;100.00;69759.91;2065754;28;20197;-76
2022/08/03 00:58:16;;;;;;;73.27;51.87;;;;;;;-144.27;100.00;69759.91;2049886;29;20505;-76
2022/08/03 00:59:18;;;;;;;65.60;50.83;;;;;;;-144.27;100.00;69759.91;2049930;28;20205;-76
2022/08/03 01:00:22;;;;;;;71.20;52.00;;;;;;;-144.27;100.00;69759.91;2050049;28;20442;-76
2022/08/03 01:01:23;;;;;;;65.93;50.50;;;;;;;-144.27;100.00;69759.91;2058537;28;20428;-76
2022/08/03 01:02:25;;;;;;;65.00;50.03;;;;;;;-144.27;100.00;69759.91;2057838;28;20473;-75
2022/08/03 01:03:27;;;;;;;55.70;41.27;;;;;;;-144.27;100.00;69759.91;2049780;28;20209;-76
2022/08/03 01:04:28;;;;;;;51.23;40.53;;;;;;;-144.27;100.00;69759.91;2057929;28;20467;-77
2022/08/03 01:05:32;;;;;;;54.53;41.93;;;;;;;-144.27;100.00;69759.91;2065825;28;20452;-75
2022/08/03 01:06:37;;;;;;;44.10;37.13;;;;;;;-144.27;100.00;69759.91;2065258;28;20460;-74
2022/08/03 01:07:52;;;;;;;47.27;38.17;;;;;;;-144.27;100.00;69759.91;2066441;28;20438;-75
2022/08/03 01:09:02;;;;;;;49.23;43.00;;;;;;;-144.27;100.00;69759.91;2066166;28;21002;-75
2022/08/03 01:10:12;;;;;;;63.27;49.07;;;;;;;-144.27;100.00;69759.91;2065817;28;21021;-75
2022/08/03 01:11:16;;;;;;;44.63;39.23;;;;;;;-144.27;100.00;69759.91;2064719;28;20935;-76
2022/08/03 01:12:25;;;;;;;50.23;40.50;;;;;;;-144.27;100.00;69759.91;2058459;28;20492;-76
2022/08/03 01:13:30;;;;;;;54.67;44.30;;;;;;;-144.27;100.00;69759.91;2065840;28;20604;-75
2022/08/03 01:14:39;;;;;;;59.67;44.40;;;;;;;-144.27;100.00;69759.91;2065084;28;20468;-75
2022/08/03 01:15:43;;;;;;;46.40;39.60;;;;;;;-144.27;100.00;69759.91;2059144;28;20417;-75
2022/08/03 01:16:52;;;;;;;55.23;44.37;;;;;;;-144.27;100.00;69759.91;2066374;28;20433;-75
2022/08/03 01:17:56;;;;;;;55.30;45.17;;;;;;;-144.27;100.00;69759.91;2057728;28;20437;-74
2022/08/03 01:19:02;;;;;;;48.33;39.60;;;;;;;-144.27;100.00;69759.91;2057912;28;20532;-75
2022/08/03 01:20:10;;;;;;;54.30;43.20;;;;;;;-144.27;100.00;69759.91;2066134;28;20412;-75
2022/08/03 01:21:15;;;;;;;51.83;41.70;;;;;;;-144.27;100.00;69759.91;2064910;28;20433;-74
2022/08/03 01:23:00;;;;;;;51.53;42.20;;;;;;;-144.27;100.00;69759.91;2066013;28;20500;-75
2022/08/03 01:24:23;;;;;;;47.87;39.23;;;;;;;-144.27;100.00;69759.91;2033746;29;20487;-76
2022/08/03 01:25:35;;;;;;;52.67;40.07;;;;;;;-144.27;100.00;69759.91;2033970;29;20958;-75
2022/08/03 01:26:43;;;;;;;48.17;39.57;;;;;;;-144.27;100.00;69759.91;2050864;28;20430;-78
2022/08/03 01:27:54;;;;;;;44.77;39.27;;;;;;;-144.27;100.00;69759.91;2058862;28;20406;-77
2022/08/03 01:29:03;;;;;;;50.67;42.30;;;;;;;-144.27;100.00;69759.91;2065785;28;20460;-76
2022/08/03 01:30:08;;;;;;;55.33;41.63;;;;;;;-144.27;100.00;69759.91;2057648;28;20429;-76
2022/08/03 01:31:10;;;;;;;47.33;39.87;;;;;;;-144.27;100.00;69759.91;2050058;28;20466;-76
2022/08/03 01:32:15;;;;;;;49.70;41.50;;;;;;;-144.27;100.00;69759.91;2057915;28;20468;-75
2022/08/03 01:33:20;;;;;;;51.80;41.63;;;;;;;-144.27;100.00;69759.91;2065840;28;20535;-74
2022/08/03 01:34:22;;;;;;;47.80;39.37;;;;;;;-144.27;100.00;69759.91;2065669;28;20468;-74
2022/08/03 01:35:31;;;;;;;45.33;39.77;;;;;;;-144.27;100.00;69759.91;2066235;28;20779;-75
2022/08/03 01:36:35;;;;;;;48.73;40.43;;;;;;;-144.27;100.00;69759.91;2065246;28;20471;-74
2022/08/03 01:37:41;;;;;;;46.10;38.60;;;;;;;-144.27;100.00;69759.91;2065652;28;20516;-74
2022/08/03 01:38:45;;;;;;;50.60;41.07;;;;;;;-144.27;100.00;69759.91;2066189;28;20648;-74
2022/08/03 01:39:46;;;;;;;45.87;40.63;;;;;;;-144.27;100.00;69759.91;2065540;28;20955;-74
2022/08/03 01:40:50;;;;;;;56.20;44.53;;;;;;;-144.27;100.00;69759.91;2057512;28;20571;-74
2022/08/03 01:41:58;;;;;;;51.60;42.00;;;;;;;-144.27;100.00;69759.91;2049865;28;20449;-74
2022/08/03 01:43:02;;;;;;;55.40;46.10;;;;;;;-144.27;100.00;69759.91;2058462;28;20401;-74
2022/08/03 01:44:05;;;;;;;56.43;44.80;;;;;;;-144.27;100.00;69759.91;2066164;28;20464;-74
2022/08/03 01:45:11;;;;;;;57.43;46.40;;;;;;;-144.27;100.00;69759.91;2057445;28;20833;-74
2022/08/03 01:46:13;;;;;;;64.13;49.97;;;;;;;-144.27;100.00;69759.91;2050016;28;20529;-75
2022/08/03 01:47:15;;;;;;;60.57;48.00;;;;;;;-144.27;100.00;69759.91;2049310;28;20446;-74
2022/08/03 01:48:17;;;;;;;55.63;44.47;;;;;;;-144.27;100.00;69759.91;2057924;28;20483;-75
2022/08/03 01:49:20;;;;;;;56.37;45.27;;;;;;;-144.27;100.00;69759.91;2065492;28;20444;-74
2022/08/03 01:50:24;;;;;;;63.97;47.80;;;;;;;-144.27;100.00;69759.91;2057382;28;20480;-74
2022/08/03 01:51:25;;;;;;;63.83;47.73;;;;;;;-144.27;100.00;69759.91;2057458;28;20456;-74
2022/08/03 01:52:26;;;;;;;59.60;46.73;;;;;;;-144.27;100.00;69759.91;2057437;28;20551;-74
2022/08/03 01:53:29;;;;;;;59.43;46.00;;;;;;;-144.27;100.00;69759.91;2057638;28;20433;-74
2022/08/03 01:54:33;;;;;;;57.70;45.87;;;;;;;-144.27;100.00;69759.91;2066124;28;20431;-74
2022/08/03 01:55:36;;;;;;;63.97;47.87;;;;;;;-144.27;100.00;69759.91;2057280;28;20449;-75
2022/08/03 01:56:37;;;;;;;57.20;44.80;;;;;;;-144.27;100.00;69759.91;2049499;28;20907;-74
2022/08/03 01:57:40;;;;;;;58.77;45.53;;;;;;;-144.27;100.00;69759.91;2057622;28;20496;-74
2022/08/03 01:58:42;;;;;;;68.60;46.63;;;;;;;-144.27;100.00;69759.91;2066139;28;20440;-74
2022/08/03 01:59:47;;;;;;;59.07;45.97;;;;;;;-144.27;100.00;69759.91;2066158;28;20420;-74
2022/08/03 02:00:50;;;;;;;58.53;46.80;;;;;;;-144.27;100.00;69759.91;2057332;28;20468;-74
2022/08/03 02:01:55;;;;;;;59.23;47.80;;;;;;;-144.27;100.00;69759.91;2049561;28;20964;-75
2022/08/03 02:02:58;;;;;;;61.67;46.97;;;;;;;-144.27;100.00;69759.91;2057995;28;20445;-73
2022/08/03 02:04:01;;;;;;;58.87;46.73;;;;;;;-144.27;100.00;69759.91;2066046;28;20424;-74
2022/08/03 02:05:04;;;;;;;64.53;48.07;;;;;;;-144.27;100.00;69759.91;2065301;28;20495;-75
2022/08/03 02:06:06;;;;;;;67.17;49.27;;;;;;;-144.27;100.00;69759.91;2064995;28;20468;-74
2022/08/03 02:07:08;;;;;;;59.53;46.93;;;;;;;-144.27;100.00;69759.91;2065391;28;20538;-74
2022/08/03 02:08:12;;;;;;;59.73;47.90;;;;;;;-144.27;100.00;69759.91;2057381;28;20928;-74
2022/08/03 02:09:15;;;;;;;61.47;48.77;;;;;;;-144.27;100.00;69759.91;2049553;28;20478;-74
2022/08/03 02:10:20;;;;;;;64.87;48.40;;;;;;;-144.27;100.00;69759.91;2058237;28;20762;-74
2022/08/03 02:11:21;;;;;;;66.05;48.40;;;;;;;-144.27;100.00;69759.91;2066093;28;20436;-74
2022/08/03 02:12:24;;;;;;;61.60;49.17;;;;;;;-144.27;100.00;69759.91;2066084;28;20248;-74
2022/08/03 02:13:25;;;;;;;61.53;47.07;;;;;;;-144.27;100.00;69759.91;2057320;28;20193;-75
2022/08/03 02:14:27;;;;;;;56.77;47.37;;;;;;;-144.27;100.00;69759.91;2049252;28;20540;-75
2022/08/03 02:15:29;;;;;;;61.67;46.88;;;;;;;-144.27;100.00;69759.91;2049395;28;20453;-74
2022/08/03 02:16:34;;;;;;;60.40;45.20;;;;;;;-144.27;100.00;69759.91;2049353;28;20322;-75
2022/08/03 02:17:39;;;;;;;59.67;45.80;;;;;;;-144.27;100.00;69759.91;2049743;28;20434;-73
2022/08/03 02:18:41;;;;;;;57.17;44.20;;;;;;;-144.27;100.00;69759.91;2057790;28;20245;-73
2022/08/03 02:19:43;;;;;;;53.77;42.87;;;;;;;-144.27;100.00;69759.91;2066046;28;20431;-74
2022/08/03 02:20:44;;;;;;;58.83;43.93;;;;;;;-144.27;100.00;69759.91;2057353;28;20464;-74
2022/08/03 02:21:46;;;;;;;57.27;43.43;;;;;;;-144.27;100.00;69759.91;2057097;28;20940;-75
2022/08/03 02:22:48;;;;;;;58.97;44.88;;;;;;;-144.27;100.00;69759.91;2065289;28;20500;-77
2022/08/03 02:23:53;;;;;;;56.97;45.63;;;;;;;-144.27;100.00;69759.91;2065344;28;20258;-74
2022/08/03 02:24:55;;;;;;;61.10;46.28;;;;;;;-144.27;100.00;69759.91;2066184;28;20433;-74
2022/08/03 02:25:57;;;;;;;51.80;44.50;;;;;;;-144.27;100.00;69759.91;2065908;28;20288;-75
2022/08/03 02:27:00;;;;;;;55.10;42.50;;;;;;;-144.27;100.00;69759.91;2065906;28;20189;-73
2022/08/03 02:28:05;;;;;;;55.83;41.37;;;;;;;-144.27;100.00;69759.91;2065245;28;20486;-77
2022/08/03 02:29:12;;;;;;;50.17;42.67;;;;;;;-144.27;100.00;69759.91;2057254;28;20523;-77
2022/08/03 02:30:13;;;;;;;46.03;40.83;;;;;;;-144.27;100.00;69759.91;2057508;28;20456;-77
2022/08/03 02:31:19;;;;;;;48.27;41.17;;;;;;;-144.27;100.00;69759.91;2065355;28;20995;-77
2022/08/03 02:32:28;;;;;;;51.17;42.57;;;;;;;-144.27;100.00;69759.91;2066153;28;20470;-77
2022/08/03 02:33:33;;;;;;;51.87;42.20;;;;;;;-144.27;100.00;69759.91;2065950;28;20496;-77
2022/08/03 02:34:34;;;;;;;50.87;43.53;;;;;;;-144.27;100.00;69759.91;2065935;28;20457;-76
2022/08/03 02:35:36;;;;;;;61.53;47.53;;;;;;;-144.27;100.00;69759.91;2057198;28;21047;-77
2022/08/03 02:36:38;;;;;;;56.77;45.13;;;;;;;-144.27;100.00;69759.91;2057061;28;20488;-77
2022/08/03 02:37:43;;;;;;;56.70;46.53;;;;;;;-144.27;100.00;69759.91;2065915;28;20432;-77
2022/08/03 02:38:48;;;;;;;59.28;47.28;;;;;;;-144.27;100.00;69759.91;2066051;28;20774;-77
2022/08/03 02:39:52;;;;;;;61.40;47.03;;;;;;;-144.27;100.00;69759.91;2066145;28;20166;-77
2022/08/03 02:40:54;;;;;;;63.50;47.47;;;;;;;-144.27;100.00;69759.91;2057290;28;20540;-77
2022/08/03 02:42:01;;;;;;;56.60;46.00;;;;;;;-144.27;100.00;69759.91;2057485;28;20475;-77
2022/08/03 02:43:04;;;;;;;58.45;45.17;;;;;;;-144.27;100.00;69759.91;2065941;28;20413;-76
2022/08/03 02:44:11;;;;;;;49.50;42.20;;;;;;;-144.27;100.00;69759.91;2057144;28;20198;-76
2022/08/03 02:45:15;;;;;;;47.58;39.85;;;;;;;-144.27;100.00;69759.91;2058121;28;20768;-77
2022/08/03 02:46:20;;;;;;;56.17;43.33;;;;;;;-144.27;100.00;69759.91;2064859;28;20260;-77
2022/08/03 02:47:26;;;;;;;53.20;43.10;;;;;;;-144.27;100.00;69759.91;2065261;28;20739;-76
2022/08/03 02:48:29;;;;;;;52.15;41.45;;;;;;;-144.27;100.00;69759.91;2066087;28;20459;-76
2022/08/03 02:49:30;;;;;;;55.30;43.37;;;;;;;-144.27;100.00;69759.91;2065833;28;20185;-77
2022/08/03 02:50:35;;;;;;;54.73;43.83;;;;;;;-144.27;100.00;69759.91;2065128;28;20938;-76
2022/08/03 02:51:36;;;;;;;53.90;43.35;;;;;;;-144.27;100.00;69759.91;2064913;28;20586;-76
2022/08/03 02:52:38;;;;;;;54.03;44.13;;;;;;;-144.27;100.00;69759.91;2065791;28;20197;-77
2022/08/03 02:53:40;;;;;;;52.97;43.73;;;;;;;-144.27;100.00;69759.91;2065780;28;20432;-77
2022/08/03 02:54:41;;;;;;;51.17;42.20;;;;;;;-144.27;100.00;69759.91;2065789;28;20424;-77
2022/08/03 02:55:43;;;;;;;50.38;42.22;;;;;;;-144.27;100.00;69759.91;2065114;28;20484;-76
2022/08/03 02:56:45;;;;;;;49.75;41.58;;;;;;;-144.27;100.00;69759.91;2065283;28;20208;-77
2022/08/03 02:57:46;;;;;;;50.37;41.83;;;;;;;-144.27;100.00;69759.91;2065084;28;20224;-77
2022/08/03 02:58:50;;;;;;;51.72;42.85;;;;;;;-144.27;100.00;69759.91;2065260;28;20555;-76
2022/08/03 02:59:51;;;;;;;50.33;43.43;;;;;;;-144.27;100.00;69759.91;2065906;28;20610;-77
2022/08/03 03:00:54;;;;;;;57.53;43.15;;;;;;;-144.27;100.00;69759.91;2057106;28;20807;-77
2022/08/03 03:01:54;;;;;;;48.37;40.70;;;;;;;-144.27;100.00;69759.91;2057251;28;20328;-77
2022/08/03 03:03:00;;;;;;;46.33;39.63;;;;;;;-144.27;100.00;69759.91;2065329;28;20438;-77
2022/08/03 03:04:01;;;;;;;46.47;39.43;;;;;;;-144.27;100.00;69759.91;2065836;28;20642;-76
2022/08/03 03:05:04;;;;;;;44.63;38.73;;;;;;;-144.27;100.00;69759.91;2065745;28;20782;-76
2022/08/03 03:06:07;;;;;;;52.70;41.63;;;;;;;-144.27;100.00;69759.91;2065260;28;20252;-77
2022/08/03 03:07:09;;;;;;;51.37;41.40;;;;;;;-144.27;100.00;69759.91;2057571;28;20209;-77
2022/08/03 03:08:11;;;;;;;52.43;41.77;;;;;;;-144.27;100.00;69759.91;2049878;28;20897;-77
2022/08/03 03:09:13;;;;;;;51.50;42.50;;;;;;;-144.27;100.00;69759.91;2058691;28;20966;-77
2022/08/03 03:10:14;;;;;;;49.77;42.83;;;;;;;-144.27;100.00;69759.91;2058803;28;20201;-77
2022/08/03 03:11:19;;;;;;;49.13;42.27;;;;;;;-144.27;100.00;69759.91;2067554;28;20911;-77
2022/08/03 03:12:24;;;;;;;54.10;43.00;;;;;;;-144.27;100.00;69759.91;2058956;28;20667;-77
2022/08/03 03:13:27;;;;;;;50.25;41.10;;;;;;;-144.27;100.00;69759.91;2059300;28;20456;-76
2022/08/03 03:14:28;;;;;;;57.43;42.40;;;;;;;-144.27;100.00;69759.91;2067334;28;20221;-77
2022/08/03 03:15:31;;;;;;;56.05;39.78;;;;;;;-144.27;100.00;69759.91;2067353;28;20428;-76
2022/08/03 03:16:32;;;;;;;46.73;40.47;;;;;;;-144.27;100.00;69759.91;2067203;28;20221;-76
2022/08/03 03:17:34;;;;;;;47.40;39.30;;;;;;;-144.27;100.00;69759.91;2067360;28;20431;-77
2022/08/03 03:18:38;;;;;;;43.70;36.63;;;;;;;-144.27;100.00;69759.91;2066528;28;20237;-76
2022/08/03 03:19:41;;;;;;;44.97;35.87;;;;;;;-144.27;100.00;69759.91;2058037;28;20292;-77
2022/08/03 03:20:44;;;;;;;42.47;35.13;;;;;;;-144.27;100.00;69759.91;2058979;28;20421;-76
2022/08/03 03:21:46;;;;;;;42.13;34.17;;;;;;;-144.27;100.00;69759.91;2058226;28;20457;-77
2022/08/03 03:22:48;;;;;;;41.50;33.60;;;;;;;-144.27;100.00;69759.91;2050680;28;20202;-76
2022/08/03 03:23:50;;;;;;;40.00;32.40;;;;;;;-144.27;100.00;69759.91;2058664;28;20967;-76
2022/08/03 03:24:53;;;;;;;40.77;34.07;;;;;;;-144.27;100.00;69759.91;2066567;28;20966;-77
2022/08/03 03:25:57;;;;;;;36.23;32.27;;;;;;;-144.27;100.00;69759.91;2066634;28;20527;-77
2022/08/03 03:26:59;;;;;;;39.00;33.03;;;;;;;-144.27;100.00;69759.91;2066612;28;20443;-76
2022/08/03 03:28:01;;;;;;;37.47;33.17;;;;;;;-144.27;100.00;69759.91;2058503;28;20448;-77
2022/08/03 03:29:02;;;;;;;36.83;31.37;;;;;;;-144.27;100.00;69759.91;2050583;28;20453;-76
2022/08/03 03:30:04;;;;;;;36.43;32.50;;;;;;;-144.27;100.00;69759.91;2058577;28;20432;-76
2022/08/03 03:31:05;;;;;;;35.50;31.67;;;;;;;-144.27;100.00;69759.91;2058524;28;20232;-77
2022/08/03 03:32:08;;;;;;;36.40;32.37;;;;;;;-144.27;100.00;69759.91;2058804;28;20441;-77
2022/08/03 03:33:09;;;;;;;37.77;33.57;;;;;;;-144.27;100.00;69759.91;2066643;28;20455;-77
2022/08/03 03:34:13;;;;;;;43.40;33.67;;;;;;;-144.27;100.00;69759.91;2066790;28;20427;-77
2022/08/03 03:35:14;;;;;;;39.33;33.55;;;;;;;-144.27;100.00;69759.91;2067378;28;20192;-76
2022/08/03 03:36:15;;;;;;;39.70;34.03;;;;;;;-144.27;100.00;69759.91;2066925;28;20219;-76
2022/08/03 03:37:16;;;;;;;41.10;34.03;;;;;;;-144.27;100.00;69759.91;2058353;28;20245;-76
2022/08/03 03:38:17;;;;;;;42.17;35.10;;;;;;;-144.27;100.00;69759.91;2058520;28;20441;-77
2022/08/03 03:39:19;;;;;;;43.03;33.92;;;;;;;-144.27;100.00;69759.91;2058395;28;20665;-77
2022/08/03 03:40:21;;;;;;;41.20;34.33;;;;;;;-144.27;100.00;69759.91;2058640;28;20548;-76
2022/08/03 03:41:22;;;;;;;42.90;34.30;;;;;;;-144.27;100.00;69759.91;2067105;28;20215;-77
2022/08/03 03:42:25;;;;;;;38.97;33.70;;;;;;;-144.27;100.00;69759.91;2067105;28;20268;-77
2022/08/03 03:43:26;;;;;;;39.75;34.10;;;;;;;-144.27;100.00;69759.91;2067319;28;20196;-76
2022/08/03 03:44:28;;;;;;;39.53;33.90;;;;;;;-144.27;100.00;69759.91;2058397;28;20280;-76
2022/08/03 03:45:31;;;;;;;40.40;33.93;;;;;;;-144.27;100.00;69759.91;2058711;28;20201;-76
2022/08/03 03:46:35;;;;;;;43.55;34.05;;;;;;;-144.27;100.00;69759.91;2066532;28;20463;-77
2022/08/03 03:47:36;;;;;;;36.70;32.67;;;;;;;-144.27;100.00;69759.91;2066525;28;20268;-77
2022/08/03 03:48:39;;;;;;;38.07;34.03;;;;;;;-144.27;100.00;69759.91;2058478;28;20201;-76
2022/08/03 03:49:41;;;;;;;38.00;33.13;;;;;;;-144.27;100.00;69759.91;2058677;28;20201;-76
2022/08/03 03:50:44;;;;;;;41.20;34.03;;;;;;;-144.27;100.00;69759.91;2058330;28;20198;-76
2022/08/03 03:51:45;;;;;;;41.33;34.13;;;;;;;-144.27;100.00;69759.91;2058315;28;20366;-76
2022/08/03 03:52:46;;;;;;;39.83;33.75;;;;;;;-144.27;100.00;69759.91;2067067;28;20197;-76
2022/08/03 03:53:58;;;;;;;40.63;32.47;;;;;;;-144.27;100.00;69759.91;2067107;28;20272;-76
2022/08/03 03:54:59;;;;;;;40.97;34.40;;;;;;;-144.27;100.00;69759.91;2066379;28;20192;-77
2022/08/03 03:56:01;;;;;;;43.10;33.43;;;;;;;-144.27;100.00;69759.91;2066307;28;20444;-76
2022/08/03 03:57:02;;;;;;;37.22;33.13;;;;;;;-144.27;100.00;69759.91;2050484;28;20207;-76
2022/08/03 03:58:04;;;;;;;37.60;33.55;;;;;;;-144.27;100.00;69759.91;2058669;28;20186;-77
2022/08/03 03:59:06;;;;;;;37.35;33.25;;;;;;;-144.27;100.00;69759.91;2067002;28;20217;-77
2022/08/03 04:00:10;;;;;;;41.45;33.13;;;;;;;-144.27;100.00;69759.91;2066995;28;20247;-77
2022/08/03 04:01:12;;;;;;;36.83;33.03;;;;;;;-144.27;100.00;69759.91;2067135;28;20220;-76
2022/08/03 04:02:14;;;;;;;37.50;33.58;;;;;;;-144.27;100.00;69759.91;2066382;28;20904;-76
2022/08/03 04:03:15;;;;;;;37.10;32.85;;;;;;;-144.27;100.00;69759.91;2066297;28;20201;-76
2022/08/03 04:11:14;;;;;;;37.97;33.83;;;;;;;-144.27;100.00;69759.91;2036631;29;20266;-76
2022/08/03 04:12:16;;;;;;;45.57;36.17;;;;;;;-144.27;100.00;69759.91;2034927;29;20195;-77
2022/08/03 04:13:20;;;;;;;41.67;35.37;;;;;;;-144.27;100.00;69759.91;2042355;29;20434;-77
2022/08/03 04:14:26;;;;;;;43.65;33.33;;;;;;;-144.27;100.00;69759.91;2051266;28;20534;-74
2022/08/03 04:15:28;;;;;;;38.95;33.30;;;;;;;-144.27;100.00;69759.91;2058963;28;20186;-75
2022/08/03 04:16:32;;;;;;;40.38;36.00;;;;;;;-144.27;100.00;69759.91;2066177;28;20204;-76
2022/08/03 04:17:34;;;;;;;38.20;34.10;;;;;;;-144.27;100.00;69759.91;2058116;28;20708;-75
2022/08/03 04:18:36;;;;;;;38.80;35.00;;;;;;;-144.27;100.00;69759.91;2050044;28;20506;-75
2022/08/03 04:19:40;;;;;;;38.53;34.67;;;;;;;-144.27;100.00;69759.91;2050236;28;20205;-75
2022/08/03 04:20:46;;;;;;;38.93;34.83;;;;;;;-144.27;100.00;69759.91;2058560;28;20528;-75
2022/08/03 04:21:51;;;;;;;36.40;32.55;;;;;;;-144.27;100.00;69759.91;2066526;28;20942;-76
2022/08/03 04:22:53;;;;;;;35.93;32.07;;;;;;;-144.27;100.00;69759.91;2066191;28;20208;-76
2022/08/03 04:23:58;;;;;;;36.60;31.67;;;;;;;-144.27;100.00;69759.91;2066529;28;20421;-76
2022/08/03 04:25:02;;;;;;;44.83;32.60;;;;;;;-144.27;100.00;69759.91;2066901;28;20428;-76
2022/08/03 04:26:06;;;;;;;35.03;31.43;;;;;;;-144.27;100.00;69759.91;2066777;28;20189;-76
2022/08/03 04:27:12;;;;;;;35.10;31.53;;;;;;;-144.27;100.00;69759.91;2066924;28;20919;-76
2022/08/03 04:28:15;;;;;;;36.57;32.73;;;;;;;-144.27;100.00;69759.91;2058075;28;20504;-75
2022/08/03 04:29:17;;;;;;;38.23;34.10;;;;;;;-144.27;100.00;69759.91;2058489;28;20439;-76
2022/08/03 04:30:18;;;;;;;35.65;31.90;;;;;;;-144.27;100.00;69759.91;2066941;28;20506;-76
2022/08/03 04:31:21;;;;;;;35.93;32.10;;;;;;;-144.27;100.00;69759.91;2058114;28;20197;-75
2022/08/03 04:32:24;;;;;;;38.80;32.90;;;;;;;-144.27;100.00;69759.91;2058194;28;20891;-75
2022/08/03 04:33:27;;;;;;;36.40;32.63;;;;;;;-144.27;100.00;69759.91;2065769;28;20312;-75
2022/08/03 04:34:29;;;;;;;34.87;31.17;;;;;;;-144.27;100.00;69759.91;2050270;28;20454;-74
2022/08/03 04:35:33;;;;;;;36.27;32.03;;;;;;;-144.27;100.00;69759.91;2049718;28;20446;-75
2022/08/03 04:36:39;;;;;;;39.67;34.10;;;;;;;-144.27;100.00;69759.91;2058026;28;20461;-75
2022/08/03 04:37:44;;;;;;;37.00;32.90;;;;;;;-144.27;100.00;69759.91;2057925;28;20457;-75
2022/08/03 04:38:54;;;;;;;37.50;33.43;;;;;;;-144.27;100.00;69759.91;2050620;28;20466;-75
2022/08/03 04:39:57;;;;;;;38.33;34.00;;;;;;;-144.27;100.00;69759.91;2059553;28;20397;-76
2022/08/03 04:40:59;;;;;;;36.57;32.77;;;;;;;-144.27;100.00;69759.91;2066864;28;20439;-75
2022/08/03 04:42:05;;;;;;;39.30;33.47;;;;;;;-144.27;100.00;69759.91;2066648;28;20439;-75
2022/08/03 04:43:08;;;;;;;44.23;34.00;;;;;;;-144.27;100.00;69759.91;2066830;28;20409;-75
2022/08/03 04:44:10;;;;;;;44.40;34.67;;;;;;;-144.27;100.00;69759.91;2066658;28;20479;-76
2022/08/03 04:45:12;;;;;;;37.93;33.87;;;;;;;-144.27;100.00;69759.91;2066869;28;20436;-74
2022/08/03 04:46:14;;;;;;;36.80;33.03;;;;;;;-144.27;100.00;69759.91;2066574;28;20491;-75
2022/08/03 04:47:15;;;;;;;38.53;34.47;;;;;;;-144.27;100.00;69759.91;2065898;28;20952;-75
2022/08/03 04:48:19;;;;;;;37.53;33.70;;;;;;;-144.27;100.00;69759.91;2057887;28;20465;-75